createdAt,value
2022-08-19T00:00:43.090Z,32.84
2022-08-19T00:03:09.482Z,32.54
2022-08-19T00:05:36.301Z,32.54
2022-08-19T00:08:03.027Z,32.67
2022-08-19T00:10:29.556Z,32.72
2022-08-19T00:12:56.059Z,32.74
2022-08-19T00:15:22.778Z,33.40
2022-08-19T00:17:49.215Z,33.44
2022-08-19T00:20:15.864Z,33.45
2022-08-19T00:22:42.646Z,33.61
2022-08-19T00:25:09.573Z,33.77
2022-08-19T00:27:36.402Z,33.46
2022-08-19T00:30:02.856Z,33.49
2022-08-19T00:32:29.380Z,33.45
2022-08-19T00:34:57.612Z,33.48
2022-08-19T00:37:24.469Z,33.57
2022-08-19T00:39:50.929Z,33.38
2022-08-19T00:42:17.414Z,33.86
2022-08-19T00:44:43.935Z,33.90
2022-08-19T00:47:14.073Z,34.15
2022-08-19T00:49:40.800Z,33.98
2022-08-19T00:52:07.472Z,34.20
2022-08-19T00:54:34.070Z,34.16
2022-08-19T00:57:00.530Z,34.20
2022-08-19T01:00:01.924Z,34.54
2022-08-19T01:02:13.807Z,34.76
2022-08-19T01:04:40.788Z,34.54
2022-08-19T01:07:07.279Z,34.19
2022-08-19T01:09:34.259Z,34.56
2022-08-19T01:12:01.111Z,34.29
2022-08-19T01:14:27.534Z,34.28
2022-08-19T01:16:53.936Z,34.08
2022-08-19T01:19:20.682Z,33.97
2022-08-19T01:21:47.184Z,34.54
2022-08-19T01:24:13.835Z,35.07
2022-08-19T01:26:40.382Z,35.00
2022-08-19T01:29:08.577Z,35.21
2022-08-19T01:31:36.407Z,34.87
2022-08-19T01:34:02.903Z,35.07
2022-08-19T01:36:29.845Z,34.82
2022-08-19T01:38:56.284Z,35.40
2022-08-19T01:41:22.898Z,35.20
2022-08-19T01:44:13.608Z,35.03
2022-08-19T01:46:35.916Z,34.90
2022-08-19T01:49:02.345Z,34.76
2022-08-19T01:51:28.880Z,34.45
2022-08-19T01:54:05.082Z,34.96
2022-08-19T01:56:31.554Z,34.89
2022-08-19T01:58:57.934Z,34.63
2022-08-19T02:01:24.593Z,34.64
2022-08-19T02:03:57.671Z,34.61
2022-08-19T02:06:27.071Z,34.61
2022-08-19T02:08:54.250Z,34.32
2022-08-19T02:11:23.889Z,34.29
2022-08-19T02:13:50.645Z,34.31
2022-08-19T02:16:17.098Z,34.06
2022-08-19T02:18:43.532Z,33.95
2022-08-19T02:21:10.296Z,34.13
2022-08-19T02:23:36.730Z,33.90
2022-08-19T02:26:03.244Z,34.51
2022-08-19T02:28:29.754Z,35.52
2022-08-19T02:30:56.446Z,36.61
2022-08-19T02:33:23.548Z,38.09
2022-08-19T02:35:50.366Z,38.35
2022-08-19T02:38:16.880Z,40.33
2022-08-19T02:40:43.272Z,39.88
2022-08-19T02:43:10.288Z,40.82
2022-08-19T02:45:36.704Z,41.12
2022-08-19T02:48:12.768Z,40.73
2022-08-19T02:50:53.045Z,41.84
2022-08-19T02:53:20.117Z,41.36
2022-08-19T02:55:46.580Z,41.65
2022-08-19T02:58:13.292Z,41.77
2022-08-19T03:00:39.692Z,41.52
2022-08-19T03:03:08.638Z,42.48
2022-08-19T03:05:47.060Z,42.99
2022-08-19T03:08:21.807Z,41.54
2022-08-19T03:10:48.338Z,40.34
2022-08-19T03:13:14.987Z,40.45
2022-08-19T03:15:41.590Z,40.72
2022-08-19T03:18:08.169Z,40.15
2022-08-19T03:20:35.062Z,39.71
2022-08-19T03:23:01.507Z,40.17
2022-08-19T03:25:27.970Z,40.00
2022-08-19T03:27:54.446Z,40.36
2022-08-19T03:30:23.168Z,40.75
2022-08-19T03:32:57.120Z,40.30
2022-08-19T03:35:23.870Z,40.29
2022-08-19T03:37:50.551Z,40.70
2022-08-19T03:40:17.165Z,41.33
2022-08-19T03:42:48.732Z,40.51
2022-08-19T03:45:16.176Z,39.92
2022-08-19T03:47:42.782Z,39.63
2022-08-19T03:50:09.229Z,39.54
2022-08-19T03:52:35.862Z,39.30
2022-08-19T03:55:02.297Z,39.16
2022-08-19T03:57:31.923Z,39.05
2022-08-19T04:00:13.256Z,39.08
2022-08-19T04:02:41.394Z,38.70
2022-08-19T04:05:07.883Z,39.06
2022-08-19T04:07:34.298Z,39.10
2022-08-19T04:10:00.761Z,39.05
2022-08-19T04:12:27.440Z,39.04
2022-08-19T04:14:54.114Z,38.95
2022-08-19T04:17:20.968Z,38.90
2022-08-19T04:19:47.530Z,38.84
2022-08-19T04:22:14.217Z,39.26
2022-08-19T04:24:40.640Z,39.26
2022-08-19T04:27:07.145Z,38.79
2022-08-19T04:29:33.744Z,39.01
2022-08-19T04:32:00.514Z,38.85
2022-08-19T04:34:36.065Z,39.02
2022-08-19T04:37:22.456Z,39.02
2022-08-19T04:39:49.042Z,39.00
2022-08-19T04:42:15.555Z,39.19
2022-08-19T04:44:46.355Z,39.06
2022-08-19T04:47:12.988Z,38.79
2022-08-19T04:49:41.743Z,39.20
2022-08-19T04:52:08.122Z,39.80
2022-08-19T04:54:38.325Z,40.33
2022-08-19T04:57:05.644Z,40.56
2022-08-19T04:59:32.049Z,41.14
2022-08-19T05:01:58.870Z,41.03
2022-08-19T05:04:25.246Z,40.21
2022-08-19T05:06:51.698Z,39.80
2022-08-19T05:09:18.235Z,39.24
2022-08-19T05:11:44.689Z,38.87
2022-08-19T05:14:11.053Z,39.42
2022-08-19T05:16:37.591Z,40.47
2022-08-19T05:19:03.975Z,40.96
2022-08-19T05:21:30.353Z,39.76
2022-08-19T05:23:56.922Z,41.01
2022-08-19T05:26:23.298Z,40.29
2022-08-19T05:28:53.048Z,42.43
2022-08-19T05:31:21.300Z,42.67
2022-08-19T05:33:47.701Z,43.75
2022-08-19T05:36:14.136Z,44.98
2022-08-19T05:38:40.753Z,43.90
2022-08-19T05:41:07.174Z,45.05
2022-08-19T05:43:33.533Z,45.02
2022-08-19T05:45:59.987Z,43.44
2022-08-19T05:48:26.381Z,44.83
2022-08-19T05:50:52.766Z,46.72
2022-08-19T05:53:19.292Z,45.60
2022-08-19T05:55:45.697Z,48.06
2022-08-19T05:58:12.107Z,46.94
2022-08-19T06:00:38.506Z,45.59
2022-08-19T06:03:12.470Z,46.47
2022-08-19T06:05:44.766Z,45.64
2022-08-19T06:08:18.247Z,46.54
2022-08-19T06:10:44.947Z,46.22
2022-08-19T06:13:11.363Z,46.33
2022-08-19T06:15:37.812Z,45.77
2022-08-19T06:18:04.400Z,45.14
2022-08-19T06:20:54.586Z,45.38
2022-08-19T06:23:17.335Z,45.06
2022-08-19T06:25:43.970Z,45.51
2022-08-19T06:28:15.093Z,46.44
2022-08-19T06:30:42.225Z,45.98
2022-08-19T06:33:08.658Z,46.53
2022-08-19T06:35:35.069Z,45.23
2022-08-19T06:38:01.972Z,44.04
2022-08-19T06:40:28.389Z,45.12
2022-08-19T06:42:55.553Z,45.60
2022-08-19T06:45:24.548Z,44.15
2022-08-19T06:47:51.896Z,44.63
2022-08-19T06:50:18.508Z,43.97
2022-08-19T06:52:45.393Z,45.36
2022-08-19T06:55:11.857Z,44.11
2022-08-19T06:57:38.291Z,43.76
2022-08-19T07:00:04.812Z,43.08
2022-08-19T07:02:31.312Z,42.28
2022-08-19T07:04:57.837Z,43.98
2022-08-19T07:07:24.641Z,42.29
2022-08-19T07:09:57.985Z,42.03
2022-08-19T07:12:26.659Z,43.13
2022-08-19T07:14:53.121Z,42.24
2022-08-19T07:17:21.090Z,42.56
2022-08-19T07:19:48.410Z,41.86
2022-08-19T07:22:15.349Z,41.14
2022-08-19T07:24:51.425Z,41.56
2022-08-19T07:27:18.422Z,41.05
2022-08-19T07:29:57.326Z,39.70
2022-08-19T07:32:24.418Z,40.25
2022-08-19T07:34:51.899Z,39.69
2022-08-19T07:37:18.353Z,40.34
2022-08-19T07:39:45.191Z,40.41
2022-08-19T07:42:13.340Z,39.66
2022-08-19T07:47:07.450Z,39.59
2022-08-19T07:49:53.826Z,38.71
2022-08-19T07:52:23.205Z,39.15
2022-08-19T07:54:49.632Z,39.54
2022-08-19T07:57:16.036Z,39.53
2022-08-19T07:59:42.631Z,39.76
2022-08-19T08:02:09.079Z,38.45
2022-08-19T08:04:35.505Z,37.60
2022-08-19T08:07:02.345Z,37.04
2022-08-19T08:09:28.749Z,37.54
2022-08-19T08:11:55.154Z,36.77
2022-08-19T08:14:29.601Z,36.42
2022-08-19T08:17:01.557Z,36.53
2022-08-19T08:19:28.467Z,35.80
2022-08-19T08:21:54.883Z,34.99
2022-08-19T08:24:21.300Z,35.60
2022-08-19T08:26:52.237Z,36.11
2022-08-19T08:29:24.150Z,37.44
2022-08-19T08:31:58.459Z,36.37
2022-08-19T08:34:27.603Z,36.29
2022-08-19T08:36:54.359Z,35.94
2022-08-19T08:39:20.730Z,34.83
2022-08-19T08:41:47.167Z,35.34
2022-08-19T08:44:17.199Z,34.69
2022-08-19T08:46:46.506Z,34.72
2022-08-19T08:49:13.339Z,33.86
2022-08-19T08:54:11.068Z,35.05
2022-08-19T08:56:37.800Z,35.30
2022-08-19T08:59:04.245Z,34.58
2022-08-19T09:01:31.026Z,34.64
2022-08-19T09:03:57.673Z,34.46
2022-08-19T09:06:29.517Z,34.32
2022-08-19T09:08:56.747Z,34.27
2022-08-19T09:11:42.078Z,34.81
2022-08-19T09:14:23.543Z,34.47
2022-08-19T09:16:55.908Z,35.67
2022-08-19T09:19:22.569Z,34.34
2022-08-19T09:21:49.029Z,33.78
2022-08-19T09:24:15.647Z,33.77
2022-08-19T09:26:48.517Z,33.42
2022-08-19T09:29:19.982Z,33.53
2022-08-19T09:31:49.120Z,33.85
2022-08-19T09:34:21.106Z,33.83
2022-08-19T09:36:48.437Z,34.52
2022-08-19T09:39:21.991Z,34.43
2022-08-19T09:41:49.012Z,33.68
2022-08-19T09:44:15.978Z,34.17
2022-08-19T09:46:43.460Z,34.09
2022-08-19T09:49:11.248Z,33.61
2022-08-19T09:51:39.867Z,33.79
2022-08-19T09:54:06.354Z,34.07
2022-08-19T09:56:32.792Z,33.48
2022-08-19T09:59:00.719Z,32.80
2022-08-19T10:01:27.310Z,33.60
2022-08-19T10:03:53.937Z,33.24
2022-08-19T10:06:20.323Z,33.61
2022-08-19T10:09:09.013Z,33.11
2022-08-19T10:11:36.366Z,32.51
2022-08-19T10:14:07.620Z,32.56
2022-08-19T10:16:37.131Z,32.47
2022-08-19T10:19:06.414Z,33.17
2022-08-19T10:21:34.374Z,32.63
2022-08-19T10:24:01.184Z,32.65
2022-08-19T10:26:27.812Z,33.32
2022-08-19T10:28:58.026Z,32.95
2022-08-19T10:31:59.934Z,33.07
2022-08-19T10:34:17.568Z,33.25
2022-08-19T10:36:56.094Z,33.22
2022-08-19T10:39:23.680Z,33.73
2022-08-19T10:41:58.521Z,33.21
2022-08-19T10:44:32.350Z,33.56
2022-08-19T10:47:00.505Z,34.73
2022-08-19T10:49:28.448Z,35.07
2022-08-19T10:51:56.119Z,34.96
2022-08-19T10:54:33.190Z,36.00
2022-08-19T10:57:00.179Z,36.49
2022-08-19T10:59:26.991Z,36.94
2022-08-19T11:01:54.461Z,37.31
2022-08-19T11:04:28.854Z,37.62
2022-08-19T11:06:56.517Z,38.53
2022-08-19T11:09:23.431Z,39.31
2022-08-19T11:11:50.540Z,38.34
2022-08-19T11:14:17.356Z,38.41
2022-08-19T11:16:44.247Z,38.83
2022-08-19T11:22:04.707Z,38.63
2022-08-19T11:24:31.381Z,38.57
2022-08-19T11:26:59.299Z,39.43
2022-08-19T11:29:30.950Z,40.15
2022-08-19T11:31:57.674Z,39.77
2022-08-19T11:34:24.375Z,39.42
2022-08-19T11:36:51.042Z,38.87
2022-08-19T11:39:17.571Z,38.73
2022-08-19T11:41:44.318Z,38.04
2022-08-19T11:44:11.140Z,37.43
2022-08-19T11:46:38.043Z,36.19
2022-08-19T11:49:04.622Z,35.99
2022-08-19T11:51:31.320Z,35.30
2022-08-19T11:53:57.904Z,34.54
2022-08-19T11:56:24.447Z,34.93
2022-08-19T11:58:51.354Z,35.75
2022-08-19T12:01:18.246Z,34.23
2022-08-19T12:03:44.679Z,33.05
2022-08-19T12:06:11.811Z,33.58
2022-08-19T12:08:40.641Z,32.98
2022-08-19T12:11:07.401Z,31.19
2022-08-19T12:13:34.747Z,31.58
2022-08-19T12:16:01.194Z,30.90
2022-08-19T12:18:28.292Z,30.93
2022-08-19T12:20:55.247Z,31.17
2022-08-19T12:23:22.033Z,30.53
2022-08-19T12:25:48.811Z,30.58
2022-08-19T12:28:15.470Z,30.95
2022-08-19T12:30:42.084Z,30.92
2022-08-19T12:33:08.664Z,30.76
2022-08-19T12:35:36.520Z,31.10
2022-08-19T12:38:03.140Z,30.81
2022-08-19T12:40:29.929Z,30.70
2022-08-19T12:42:56.918Z,31.73
2022-08-19T12:45:23.327Z,31.73
2022-08-19T12:47:49.965Z,31.45
2022-08-19T12:50:21.557Z,31.72
2022-08-19T12:52:48.093Z,31.91
2022-08-19T12:55:14.539Z,31.68
2022-08-19T12:57:40.970Z,32.63
2022-08-19T13:00:07.741Z,32.90
2022-08-19T13:02:38.840Z,32.54
2022-08-19T13:05:06.416Z,33.04
2022-08-19T13:07:32.843Z,33.19
2022-08-19T13:10:00.113Z,32.97
2022-08-19T13:12:27.099Z,33.13
2022-08-19T13:14:53.538Z,33.55
2022-08-19T13:17:20.058Z,33.37
2022-08-19T13:19:47.508Z,33.93
2022-08-19T13:22:15.124Z,34.07
2022-08-19T13:24:46.402Z,33.53
2022-08-19T13:27:14.193Z,33.26
2022-08-19T13:29:40.629Z,32.85
2022-08-19T13:32:09.828Z,33.03
2022-08-19T13:34:39.945Z,33.17
2022-08-19T13:37:06.537Z,33.00
2022-08-19T13:39:33.228Z,32.74
2022-08-19T13:41:59.960Z,32.07
2022-08-19T13:44:26.569Z,32.84
2022-08-19T13:46:54.087Z,32.67
2022-08-19T13:49:22.043Z,33.30
2022-08-19T13:51:48.533Z,33.61
2022-08-19T13:54:15.137Z,35.29
2022-08-19T13:56:42.108Z,34.97
2022-08-19T13:59:08.671Z,34.97
2022-08-19T14:01:36.616Z,35.11
2022-08-19T14:04:03.641Z,34.50
2022-08-19T14:06:30.698Z,34.10
2022-08-19T14:08:57.132Z,34.05
2022-08-19T14:11:23.787Z,34.19
2022-08-19T14:13:50.331Z,33.56
2022-08-19T14:16:16.812Z,33.38
2022-08-19T14:18:44.264Z,33.43
2022-08-19T14:21:10.967Z,33.44
2022-08-19T14:23:37.817Z,33.31
2022-08-19T14:26:04.944Z,33.57
2022-08-19T14:28:31.659Z,33.59
2022-08-19T14:30:58.142Z,32.89
2022-08-19T14:33:28.572Z,32.81
2022-08-19T14:35:59.810Z,33.09
2022-08-19T14:38:31.125Z,31.18
2022-08-19T14:40:58.848Z,31.55
2022-08-19T14:43:25.311Z,31.67
2022-08-19T14:45:52.060Z,32.24
2022-08-19T14:48:20.330Z,32.38
2022-08-19T14:50:47.013Z,31.96
2022-08-19T14:53:14.420Z,31.81
2022-08-19T14:55:40.978Z,31.10
2022-08-19T14:58:08.214Z,30.46
2022-08-19T15:00:41.252Z,30.21
2022-08-19T15:03:07.859Z,30.02
2022-08-19T15:05:34.400Z,30.25
2022-08-19T15:08:01.435Z,30.01
2022-08-19T15:10:27.882Z,30.24
2022-08-19T15:12:54.522Z,30.41
2022-08-19T15:15:21.359Z,30.49
2022-08-19T15:17:47.855Z,30.43
2022-08-19T15:20:14.289Z,30.58
2022-08-19T15:22:41.007Z,30.49
2022-08-19T15:25:07.893Z,30.15
2022-08-19T15:27:35.003Z,29.42
2022-08-19T15:30:01.904Z,29.46
2022-08-19T15:32:28.423Z,29.66
2022-08-19T15:34:55.775Z,29.59
2022-08-19T15:37:22.643Z,29.76
2022-08-19T15:39:50.179Z,29.33
2022-08-19T15:42:29.666Z,29.40
2022-08-19T15:44:58.286Z,29.90
2022-08-19T15:47:35.171Z,29.46
2022-08-19T15:50:02.250Z,30.07
2022-08-19T15:52:28.725Z,29.63
2022-08-19T15:54:55.226Z,29.71
2022-08-19T15:57:22.242Z,29.75
2022-08-19T15:59:48.668Z,30.08
2022-08-19T16:02:16.759Z,30.10
2022-08-19T16:04:43.794Z,29.94
2022-08-19T16:07:10.165Z,30.18
2022-08-19T16:09:36.559Z,29.72
2022-08-19T16:12:03.409Z,30.16
2022-08-19T16:14:30.978Z,30.05
2022-08-19T16:16:57.469Z,29.51
2022-08-19T16:19:23.963Z,29.49
2022-08-19T16:21:50.509Z,29.56
2022-08-19T16:24:16.941Z,29.96
2022-08-19T16:26:43.584Z,30.03
2022-08-19T16:29:12.995Z,29.55
2022-08-19T16:31:39.935Z,29.61
2022-08-19T16:34:06.932Z,29.55
2022-08-19T16:36:33.756Z,29.79
2022-08-19T16:39:00.183Z,29.83
2022-08-19T16:41:31.826Z,30.47
2022-08-19T16:43:58.221Z,30.54
2022-08-19T16:46:27.038Z,30.39
2022-08-19T16:48:54.647Z,30.65
2022-08-19T16:51:21.643Z,30.66
2022-08-19T16:53:48.185Z,30.36
2022-08-19T16:56:14.791Z,30.82
2022-08-19T16:58:41.677Z,30.90
2022-08-19T17:01:09.287Z,31.25
2022-08-19T17:03:36.794Z,31.41
2022-08-19T17:06:03.539Z,31.20
2022-08-19T17:08:29.968Z,31.28
2022-08-19T17:11:17.297Z,31.16
2022-08-19T17:13:43.155Z,31.41
2022-08-19T17:16:09.742Z,31.68
2022-08-19T17:18:36.449Z,31.80
2022-08-19T17:21:02.912Z,31.96
2022-08-19T17:23:42.438Z,31.75
2022-08-19T17:26:09.798Z,32.27
2022-08-19T17:28:43.887Z,32.12
2022-08-19T17:31:11.457Z,32.27
2022-08-19T17:33:41.521Z,32.28
2022-08-19T17:36:08.306Z,31.94
2022-08-19T17:38:34.907Z,31.61
2022-08-19T17:41:01.302Z,32.05
2022-08-19T17:43:32.368Z,32.71
2022-08-19T17:46:00.743Z,32.55
2022-08-19T17:48:27.422Z,32.61
2022-08-19T17:50:54.031Z,32.62
2022-08-19T17:53:20.970Z,32.72
2022-08-19T17:55:49.524Z,32.66
2022-08-19T17:58:16.445Z,33.35
2022-08-19T18:00:53.907Z,33.22
2022-08-19T18:03:20.988Z,33.27
2022-08-19T18:05:50.184Z,33.50
2022-08-19T18:08:16.603Z,33.02
2022-08-19T18:10:43.355Z,32.79
2022-08-19T18:13:17.405Z,33.98
2022-08-19T18:15:44.674Z,33.68
2022-08-19T18:18:15.024Z,33.71
2022-08-19T18:20:42.140Z,33.72
2022-08-19T18:23:45.503Z,33.26
2022-08-19T18:25:55.079Z,33.28
2022-08-19T18:28:21.559Z,33.43
2022-08-19T18:30:47.975Z,33.98
2022-08-19T18:33:14.365Z,33.93
2022-08-19T18:35:41.112Z,34.10
2022-08-19T18:38:07.622Z,33.93
2022-08-19T18:40:34.039Z,34.09
2022-08-19T18:43:00.628Z,33.97
2022-08-19T18:45:27.019Z,34.06
2022-08-19T18:47:53.489Z,33.76
2022-08-19T18:50:19.973Z,34.92
2022-08-19T18:52:46.356Z,36.18
2022-08-19T18:55:12.835Z,35.75
2022-08-19T18:57:39.523Z,35.11
2022-08-19T19:00:05.963Z,35.50
2022-08-19T19:02:32.408Z,34.97
2022-08-19T19:04:59.829Z,34.95
2022-08-19T19:07:28.232Z,35.27
2022-08-19T19:09:54.806Z,34.74
2022-08-19T19:12:25.752Z,35.17
2022-08-19T19:14:52.202Z,34.94
2022-08-19T19:17:18.840Z,36.52
2022-08-19T19:19:45.385Z,36.68
2022-08-19T19:22:12.529Z,36.66
2022-08-19T19:24:39.157Z,37.11
2022-08-19T19:27:05.748Z,37.96
2022-08-19T19:29:32.409Z,37.95
2022-08-19T19:31:58.853Z,37.50
2022-08-19T19:34:29.925Z,37.09
2022-08-19T19:36:56.918Z,37.63
2022-08-19T19:39:34.036Z,37.91
2022-08-19T19:42:12.547Z,37.87
2022-08-19T19:44:47.206Z,38.03
2022-08-19T19:47:13.844Z,38.25
2022-08-19T19:49:57.972Z,38.03
2022-08-19T19:52:30.600Z,38.08
2022-08-19T19:54:57.076Z,38.61
2022-08-19T19:57:23.544Z,38.97
2022-08-19T19:59:51.617Z,37.63
2022-08-19T20:02:18.320Z,37.20
2022-08-19T20:04:44.740Z,37.11
2022-08-19T20:07:16.842Z,37.10
2022-08-19T20:09:59.253Z,37.34
2022-08-19T20:12:27.038Z,37.67
2022-08-19T20:14:53.375Z,37.81
2022-08-19T20:17:19.884Z,39.72
2022-08-19T20:19:46.467Z,39.73
2022-08-19T20:22:12.841Z,40.37
2022-08-19T20:24:39.218Z,41.76
2022-08-19T20:27:05.687Z,41.52
2022-08-19T20:29:39.381Z,41.36
2022-08-19T20:32:07.835Z,41.01
2022-08-19T20:34:34.211Z,41.77
2022-08-19T20:37:00.586Z,41.94
2022-08-19T20:39:27.036Z,44.66
2022-08-19T20:41:53.471Z,44.00
2022-08-19T20:44:19.904Z,42.87
2022-08-19T20:46:55.562Z,42.93
2022-08-19T20:49:22.622Z,42.16
2022-08-19T20:51:53.443Z,42.37
2022-08-19T20:54:19.854Z,42.45
2022-08-19T20:56:46.200Z,41.96
2022-08-19T20:59:16.045Z,41.96
2022-08-19T21:01:42.495Z,41.87
2022-08-19T21:04:08.886Z,42.25
2022-08-19T21:06:35.444Z,42.04
2022-08-19T21:09:01.827Z,42.48
2022-08-19T21:11:28.233Z,41.76
2022-08-19T21:13:54.688Z,41.53
2022-08-19T21:16:21.076Z,41.88
2022-08-19T21:18:47.515Z,42.38
2022-08-19T21:21:14.117Z,41.93
2022-08-19T21:23:40.502Z,41.94
2022-08-19T21:26:06.874Z,41.86
2022-08-19T21:28:36.497Z,41.31
2022-08-19T21:31:03.386Z,40.84
2022-08-19T21:33:31.763Z,41.79
2022-08-19T21:35:58.723Z,41.82
2022-08-19T21:38:25.149Z,42.05
2022-08-19T21:40:51.916Z,42.11
2022-08-19T21:43:18.758Z,41.70
2022-08-19T21:45:45.166Z,41.00
2022-08-19T21:48:11.634Z,41.58
2022-08-19T21:50:38.427Z,42.50
2022-08-19T21:53:05.087Z,41.96
2022-08-19T21:55:31.551Z,41.03
2022-08-19T21:57:58.487Z,40.11
2022-08-19T22:00:24.998Z,40.72
2022-08-19T22:02:51.432Z,41.45
2022-08-19T22:05:18.194Z,43.95
2022-08-19T22:07:44.795Z,43.55
2022-08-19T22:10:11.254Z,42.32
2022-08-19T22:12:38.019Z,43.50
2022-08-19T22:15:04.570Z,44.52
2022-08-19T22:17:31.082Z,42.92
2022-08-19T22:19:57.740Z,42.85
2022-08-19T22:22:24.247Z,43.56
2022-08-19T22:24:50.627Z,44.05
2022-08-19T22:27:17.103Z,44.05
2022-08-19T22:29:43.617Z,44.19
2022-08-19T22:32:26.658Z,45.94
2022-08-19T22:34:54.866Z,45.52
2022-08-19T22:37:21.308Z,45.53
2022-08-19T22:39:47.752Z,44.64
2022-08-19T22:42:14.610Z,45.87
2022-08-19T22:44:40.979Z,45.46
2022-08-19T22:47:07.362Z,46.89
2022-08-19T22:49:33.905Z,46.32
2022-08-19T22:52:00.481Z,47.02
2022-08-19T22:54:29.559Z,47.43
2022-08-19T22:56:56.423Z,46.81
2022-08-19T22:59:22.854Z,47.23
2022-08-19T23:01:49.247Z,46.27
2022-08-19T23:04:15.719Z,46.73
2022-08-19T23:06:42.482Z,46.73
2022-08-19T23:09:08.951Z,47.30
2022-08-19T23:11:38.223Z,45.56
2022-08-19T23:14:08.726Z,45.66
2022-08-19T23:16:35.569Z,45.41
2022-08-19T23:19:02.845Z,45.94
2022-08-19T23:21:29.277Z,46.44
2022-08-19T23:23:55.693Z,45.92
2022-08-19T23:26:22.253Z,45.47
2022-08-19T23:28:48.716Z,47.49
2022-08-19T23:31:15.103Z,47.35
2022-08-19T23:33:51.430Z,47.28
2022-08-19T23:36:18.144Z,47.83
2022-08-19T23:38:44.795Z,47.59
2022-08-19T23:41:11.200Z,48.69
2022-08-19T23:43:37.581Z,50.33
2022-08-19T23:46:10.439Z,49.35
2022-08-19T23:48:37.573Z,48.98
2022-08-19T23:51:03.989Z,49.67
2022-08-19T23:53:35.683Z,49.45
2022-08-19T23:56:02.106Z,49.93
2022-08-19T23:58:30.146Z,48.19
